Time;durP1;ratioP1;P1;durP2;ratioP2;P2;SDS_P1;SDS_P2;PMS_P1;PMS_P2;Temp;Humidity;BMP_temperature;BMP_pressure;BME280_temperature;BME280_humidity;BME280_pressure;Samples;Min_cycle;Max_cycle;Signal;HPM_P1;HPM_P2
2022/08/04 00:00:22;;;;;;;2.53;2.05;;;;;;;22.19;58.96;95731.22;5037666;28;20131;-66
2022/08/04 00:03:21;;;;;;;4.72;2.03;;;;;;;22.08;57.99;95731.91;5045352;28;20429;-67
2022/08/04 00:06:03;;;;;;;3.92;1.90;;;;;;;22.02;56.24;95730.91;5046018;28;20028;-67
2022/08/04 00:08:31;;;;;;;3.67;2.20;;;;;;;22.02;58.11;95729.06;5047093;28;20044;-67
2022/08/04 00:10:59;;;;;;;2.08;1.98;;;;;;;22.05;57.56;95725.09;5047358;28;20025;-67
2022/08/04 00:13:27;;;;;;;2.38;1.88;;;;;;;22.08;56.93;95731.91;5046066;28;20025;-67
2022/08/04 00:15:56;;;;;;;2.13;1.98;;;;;;;22.02;57.34;95734.41;5044473;28;20022;-67
2022/08/04 00:18:32;;;;;;;1.90;1.80;;;;;;;22.00;58.45;95730.28;5044609;28;20056;-68
2022/08/04 00:21:03;;;;;;;2.40;2.20;;;;;;;22.01;57.42;95735.47;5045357;28;20025;-67
2022/08/04 00:23:32;;;;;;;2.17;2.08;;;;;;;22.03;56.85;95736.06;5045388;28;20114;-67
2022/08/04 00:25:58;;;;;;;2.10;2.00;;;;;;;22.01;56.20;95735.47;5042697;28;20024;-67
2022/08/04 00:28:24;;;;;;;2.28;1.90;;;;;;;21.98;57.93;95735.03;5047051;28;20033;-67
2022/08/04 00:30:50;;;;;;;1.90;1.80;;;;;;;21.93;57.61;95733.00;5046300;28;20032;-67
2022/08/04 00:33:19;;;;;;;2.83;2.25;;;;;;;21.96;57.43;95732.56;5047476;28;20120;-68
2022/08/04 00:35:47;;;;;;;2.00;1.90;;;;;;;22.01;56.58;95740.81;5046581;28;20044;-67
2022/08/04 00:38:17;;;;;;;2.60;1.75;;;;;;;22.07;55.62;95743.66;5043684;28;20116;-67
2022/08/04 00:41:07;;;;;;;3.72;1.98;;;;;;;22.00;57.24;95736.50;5044462;28;20532;-68
2022/08/04 00:43:41;;;;;;;2.25;2.15;;;;;;;21.94;56.34;95739.19;5046468;28;20044;-67
2022/08/04 00:46:44;;;;;;;1.98;1.88;;;;;;;21.81;57.35;95740.88;5041690;28;20021;-68
2022/08/04 00:49:47;;;;;;;2.80;2.60;;;;;;;21.73;57.74;95741.94;5045266;28;20056;-68
2022/08/04 00:52:31;;;;;;;3.17;2.22;;;;;;;21.77;57.69;95744.19;5027095;28;20045;-67
2022/08/04 00:55:14;;;;;;;2.15;2.03;;;;;;;21.72;57.07;95737.59;5042173;28;20041;-68
2022/08/04 00:57:55;;;;;;;2.35;2.20;;;;;;;21.72;56.99;95748.31;5044308;28;20083;-67
2022/08/04 01:00:21;;;;;;;2.97;1.85;;;;;;;21.68;57.48;95738.25;5047855;28;20547;-66
2022/08/04 01:03:17;;;;;;;3.90;2.20;;;;;;;21.60;58.52;95744.63;5046052;28;20119;-66
2022/08/04 01:06:16;;;;;;;1.98;1.88;;;;;;;21.59;58.96;95749.16;5046640;28;20108;-66
2022/08/04 01:09:08;;;;;;;2.88;2.40;;;;;;;21.54;57.33;95748.13;5042868;28;20025;-68
2022/08/04 01:11:55;;;;;;;2.78;2.20;;;;;;;21.48;57.83;95747.13;5041313;28;20385;-68
2022/08/04 01:14:41;;;;;;;2.45;2.00;;;;;;;21.45;59.26;95748.38;5043141;28;20044;-68
2022/08/04 01:17:23;;;;;;;2.17;2.08;;;;;;;21.44;58.68;95745.88;5044500;28;20033;-68
2022/08/04 01:20:08;;;;;;;2.30;2.10;;;;;;;21.40;59.31;95761.56;5038920;28;20057;-68
2022/08/04 01:22:33;;;;;;;2.40;2.30;;;;;;;21.38;59.88;95762.78;5042978;28;20017;-68
2022/08/04 01:25:10;;;;;;;2.10;1.90;;;;;;;21.31;59.33;95766.31;5045213;28;20021;-68
2022/08/04 01:28:04;;;;;;;3.22;2.20;;;;;;;21.27;59.74;95756.22;5043912;28;20826;-68
2022/08/04 01:30:32;;;;;;;2.40;2.20;;;;;;;21.27;59.17;95770.44;4956419;28;20083;-67
2022/08/04 01:33:07;;;;;;;1.98;1.88;;;;;;;21.29;58.79;95770.22;5043914;28;20091;-67
2022/08/04 01:35:55;;;;;;;2.47;2.30;;;;;;;21.27;59.50;95766.94;5040790;28;20116;-68
2022/08/04 01:38:26;;;;;;;2.38;2.10;;;;;;;21.20;59.11;95769.59;5043592;28;20499;-67
2022/08/04 01:40:56;;;;;;;2.38;2.10;;;;;;;21.11;58.78;95771.69;5040805;28;20154;-68
2022/08/04 01:43:23;;;;;;;2.35;2.08;;;;;;;21.12;60.30;95768.00;5037566;28;20104;-68
2022/08/04 01:45:55;;;;;;;2.38;2.25;;;;;;;21.13;61.35;95771.47;5043166;28;20559;-68
2022/08/04 01:48:24;;;;;;;2.40;2.30;;;;;;;21.09;61.17;95772.94;5045970;28;20021;-67
2022/08/04 01:50:52;;;;;;;2.10;1.98;;;;;;;21.06;63.14;95771.47;5044944;28;20025;-68
2022/08/04 01:53:19;;;;;;;1.92;1.83;;;;;;;20.99;62.46;95767.97;5042944;28;20566;-68
2022/08/04 01:55:51;;;;;;;3.25;2.17;;;;;;;21.01;61.38;95765.91;5043012;28;20028;-67
2022/08/04 01:58:22;;;;;;;2.63;2.05;;;;;;;21.02;61.19;95767.56;5046382;28;20028;-68
2022/08/04 02:01:09;;;;;;;2.28;2.10;;;;;;;21.04;61.51;95763.66;5042111;28;20029;-67
2022/08/04 02:03:38;;;;;;;2.47;2.28;;;;;;;21.07;62.12;95767.75;5045896;28;20041;-68
2022/08/04 02:06:17;;;;;;;2.85;2.65;;;;;;;21.06;60.79;95765.31;5046421;28;20036;-68
2022/08/04 02:09:12;;;;;;;2.85;2.55;;;;;;;21.07;60.77;95756.25;5043854;28;20024;-67
2022/08/04 02:11:40;;;;;;;2.35;2.10;;;;;;;21.05;61.82;95759.13;5046059;28;20033;-67
2022/08/04 02:14:13;;;;;;;2.58;2.40;;;;;;;21.01;63.68;95755.22;5043653;28;20045;-67
2022/08/04 02:16:51;;;;;;;3.05;2.30;;;;;;;20.94;61.95;95757.09;5044721;28;20036;-67
2022/08/04 02:19:41;;;;;;;3.08;2.47;;;;;;;20.85;61.51;95759.94;5046362;28;20376;-68
2022/08/04 02:22:08;;;;;;;2.25;2.10;;;;;;;20.85;62.26;95754.59;5044959;28;20393;-67
2022/08/04 02:24:44;;;;;;;2.50;2.30;;;;;;;20.84;63.34;95752.94;5041612;28;20665;-67
2022/08/04 02:27:15;;;;;;;3.08;2.38;;;;;;;20.79;62.18;95747.38;5044315;28;20500;-67
2022/08/04 02:30:02;;;;;;;2.60;2.35;;;;;;;20.77;62.52;95746.75;5046054;28;20041;-67
2022/08/04 02:32:38;;;;;;;2.60;2.40;;;;;;;20.81;62.17;95739.97;5043599;28;20554;-67
2022/08/04 02:35:13;;;;;;;3.05;2.30;;;;;;;20.83;61.20;95739.78;5044534;28;20412;-67
2022/08/04 02:37:51;;;;;;;2.35;2.22;;;;;;;20.83;61.95;95740.59;5044930;28;20033;-67
2022/08/04 02:40:19;;;;;;;3.95;2.53;;;;;;;20.80;62.97;95751.72;5050454;28;20441;-67
2022/08/04 02:42:45;;;;;;;2.10;2.00;;;;;;;20.69;62.39;95746.97;5048852;28;20029;-67
2022/08/04 02:45:11;;;;;;;2.40;2.30;;;;;;;20.72;62.68;95744.69;5049006;28;20036;-67
2022/08/04 02:47:38;;;;;;;2.80;2.60;;;;;;;20.69;62.61;95742.41;5049993;28;20013;-67
2022/08/04 02:50:04;;;;;;;2.38;2.20;;;;;;;20.69;62.11;95745.09;5049615;28;20074;-68
2022/08/04 02:52:31;;;;;;;2.55;2.28;;;;;;;20.70;63.50;95744.06;5047571;28;20108;-67
2022/08/04 02:55:00;;;;;;;2.33;2.13;;;;;;;20.71;63.71;95745.72;5049723;28;20100;-67
2022/08/04 02:57:28;;;;;;;2.40;2.30;;;;;;;20.71;62.64;95748.38;5049783;28;20048;-67
2022/08/04 03:00:14;;;;;;;2.40;2.20;;;;;;;20.73;61.95;95748.19;5048103;28;20063;-67
2022/08/04 03:03:04;;;;;;;2.78;2.58;;;;;;;20.73;62.35;95749.00;5047352;28;20491;-68
2022/08/04 03:05:55;;;;;;;4.38;2.42;;;;;;;20.69;61.81;95744.28;5047029;28;20037;-67
2022/08/04 03:08:58;;;;;;;2.30;2.10;;;;;;;20.65;63.59;95757.22;5047868;28;20029;-67
2022/08/04 03:11:32;;;;;;;2.95;2.15;;;;;;;20.61;63.55;95747.97;5046558;28;20117;-66
2022/08/04 03:14:16;;;;;;;2.60;2.40;;;;;;;20.55;63.30;95741.59;5048564;28;20041;-67
2022/08/04 03:17:30;;;;;;;2.60;2.40;;;;;;;20.57;62.67;95747.53;5048761;28;20280;-67
2022/08/04 03:20:18;;;;;;;2.63;2.42;;;;;;;20.48;62.85;95743.44;5046904;28;20040;-67
2022/08/04 03:23:04;;;;;;;2.33;2.10;;;;;;;20.46;62.77;95750.84;5041942;28;20029;-67
2022/08/04 03:26:03;;;;;;;2.47;2.05;;;;;;;20.46;63.53;95750.84;5046489;28;20035;-67
2022/08/04 03:29:05;;;;;;;2.90;2.70;;;;;;;20.42;63.34;95747.72;5047596;28;20060;-67
2022/08/04 03:31:40;;;;;;;2.58;2.38;;;;;;;20.39;64.39;95749.97;5048380;28;20093;-67
2022/08/04 03:34:36;;;;;;;3.22;2.30;;;;;;;20.31;63.02;95743.81;5045370;28;20053;-66
2022/08/04 03:37:16;;;;;;;2.55;2.35;;;;;;;20.23;63.42;95744.00;5043894;28;20035;-67
2022/08/04 03:40:06;;;;;;;2.65;2.50;;;;;;;20.25;64.47;95747.28;5046714;28;20112;-66
2022/08/04 03:42:56;;;;;;;2.85;2.20;;;;;;;20.27;64.58;95747.91;5046348;28;20032;-67
2022/08/04 03:45:57;;;;;;;2.78;2.58;;;;;;;20.26;64.32;95743.59;5045692;28;20401;-67
2022/08/04 03:48:44;;;;;;;3.63;2.25;;;;;;;20.18;64.38;95746.44;5045757;28;20063;-66
2022/08/04 03:54:39;;;;;;;2.60;2.28;;;;;;;20.05;65.06;95739.19;5043277;28;20047;-67
2022/08/04 03:57:21;;;;;;;2.25;2.08;;;;;;;19.98;64.89;95733.03;5043330;28;20039;-67
2022/08/04 04:00:04;;;;;;;2.30;2.20;;;;;;;20.00;64.82;95737.13;5047900;28;20025;-67
2022/08/04 04:02:51;;;;;;;2.50;2.30;;;;;;;20.05;65.47;95733.84;5045691;28;20100;-66
2022/08/04 04:05:42;;;;;;;2.55;2.45;;;;;;;20.04;65.21;95740.22;5046323;28;20025;-67
2022/08/04 04:08:24;;;;;;;6.07;2.33;;;;;;;20.02;67.13;95737.78;5041671;28;20060;-67
2022/08/04 04:10:58;;;;;;;2.72;2.50;;;;;;;20.03;65.69;95735.91;5046503;28;20117;-66
2022/08/04 04:13:53;;;;;;;2.80;2.60;;;;;;;20.05;65.55;95739.19;5047471;28;20566;-67
2022/08/04 04:16:40;;;;;;;2.72;2.53;;;;;;;20.09;65.42;95739.63;5037717;28;20623;-66
2022/08/04 04:19:50;;;;;;;2.55;2.35;;;;;;;20.13;65.31;95739.03;5047132;28;20064;-66
2022/08/04 04:22:53;;;;;;;2.53;2.33;;;;;;;20.09;66.15;95742.31;5041993;28;20087;-66
2022/08/04 04:25:45;;;;;;;2.95;2.67;;;;;;;20.01;66.58;95748.66;5044793;28;20408;-66
2022/08/04 04:28:46;;;;;;;6.32;4.63;;;;;;;19.97;69.09;95758.91;5047147;28;20021;-66
2022/08/04 04:31:56;;;;;;;11.45;8.73;;;;;;;19.94;67.89;95758.50;5043918;28;20033;-66
2022/08/04 04:34:45;;;;;;;4.05;3.50;;;;;;;19.95;67.47;95763.63;5043837;28;20547;-66
2022/08/04 04:37:31;;;;;;;4.35;3.75;;;;;;;19.99;68.88;95761.38;5043868;28;20036;-66
2022/08/04 04:39:59;;;;;;;;;;;;;;;20.01;67.07;95770.03;5045475;28;20569;-66
2022/08/04 04:43:01;;;;;;;2.90;2.70;;;;;;;20.02;67.54;95771.66;5047757;28;20470;-66
2022/08/04 04:45:35;;;;;;;3.78;2.40;;;;;;;20.05;67.95;95763.25;5046772;28;20047;-66
2022/08/04 04:48:04;;;;;;;2.50;2.40;;;;;;;20.02;68.16;95767.16;5041524;28;20021;-66
2022/08/04 04:50:53;;;;;;;3.35;2.88;;;;;;;19.98;67.99;95771.22;5047055;28;20488;-66
2022/08/04 04:53:43;;;;;;;3.22;2.80;;;;;;;20.00;68.20;95776.38;5043988;28;20519;-66
2022/08/04 04:56:27;;;;;;;2.97;2.78;;;;;;;20.02;68.08;95774.34;5041289;28;20120;-66
2022/08/04 04:58:55;;;;;;;2.53;2.40;;;;;;;20.00;69.12;95774.53;5046147;28;20068;-66
2022/08/04 05:01:59;;;;;;;5.32;2.67;;;;;;;20.02;68.04;95783.19;5040459;28;20064;-66
2022/08/04 05:04:58;;;;;;;7.20;2.53;;;;;;;20.12;67.64;95784.66;4959964;28;20076;-66
2022/08/04 05:07:37;;;;;;;8.60;2.50;;;;;;;20.32;66.24;95785.56;4965476;28;20081;-66
2022/08/04 05:10:41;;;;;;;2.53;2.42;;;;;;;20.48;65.36;95778.19;5029552;28;20043;-66
2022/08/04 05:13:14;;;;;;;2.72;2.45;;;;;;;20.50;65.98;95777.97;5002537;28;20041;-66
2022/08/04 05:15:43;;;;;;;3.17;2.70;;;;;;;20.51;66.44;95779.63;5047858;28;20031;-66
2022/08/04 05:18:15;;;;;;;6.15;3.03;;;;;;;20.53;66.23;95783.75;5046961;28;20033;-66
2022/08/04 05:20:44;;;;;;;3.70;2.60;;;;;;;20.57;66.87;95778.84;5043055;28;20090;-66
2022/08/04 05:23:15;;;;;;;5.22;2.70;;;;;;;20.62;66.76;95781.72;5044589;28;20066;-66
2022/08/04 05:25:52;;;;;;;2.72;2.53;;;;;;;20.67;66.92;95781.09;5046883;28;20048;-66
2022/08/04 05:28:23;;;;;;;7.57;3.28;;;;;;;20.69;66.67;95781.72;5045362;28;20032;-66
2022/08/04 05:31:00;;;;;;;3.20;2.80;;;;;;;20.78;67.24;95783.16;5043991;28;20067;-66
2022/08/04 05:33:33;;;;;;;2.70;2.50;;;;;;;20.83;66.37;95786.09;5044936;28;20025;-65
2022/08/04 05:36:01;;;;;;;2.65;2.45;;;;;;;20.88;65.90;95788.97;5037711;28;20026;-66
2022/08/04 05:38:33;;;;;;;2.78;2.58;;;;;;;20.94;65.18;95779.28;5045304;28;20432;-66
2022/08/04 05:40:59;;;;;;;2.78;2.58;;;;;;;20.96;64.91;95781.78;5041203;28;20095;-66
2022/08/04 05:43:25;;;;;;;2.63;2.40;;;;;;;21.04;64.63;95784.25;5044007;28;20400;-66
2022/08/04 05:45:52;;;;;;;2.42;2.33;;;;;;;21.10;64.99;95777.25;5040717;28;20086;-66
2022/08/04 05:48:18;;;;;;;2.53;2.33;;;;;;;21.13;65.58;95793.72;5047204;28;20403;-66
2022/08/04 05:50:45;;;;;;;4.22;2.70;;;;;;;21.23;64.95;95781.75;5044792;28;20029;-66
2022/08/04 05:53:14;;;;;;;4.82;2.65;;;;;;;21.32;63.35;95785.88;5043512;28;20554;-66
2022/08/04 05:55:39;;;;;;;2.30;2.10;;;;;;;21.42;63.63;95788.13;5039310;28;20103;-66
2022/08/04 05:58:05;;;;;;;2.95;2.47;;;;;;;21.49;62.95;95788.97;5045550;28;20484;-66
2022/08/04 06:00:34;;;;;;;5.53;2.55;;;;;;;21.50;62.96;95789.75;5044602;28;20023;-66
2022/08/04 06:03:00;;;;;;;7.07;2.58;;;;;;;21.57;63.40;95785.25;5045047;28;20071;-66
2022/08/04 06:05:27;;;;;;;3.15;2.95;;;;;;;21.61;62.88;95781.09;5043303;28;20029;-66
2022/08/04 06:07:52;;;;;;;2.25;2.15;;;;;;;21.69;62.75;95790.81;5044412;28;20060;-66
2022/08/04 06:10:18;;;;;;;2.90;2.30;;;;;;;21.78;63.35;95788.72;5045858;28;20072;-66
2022/08/04 06:12:52;;;;;;;2.50;2.35;;;;;;;21.78;63.52;95791.41;5045053;28;20079;-66
2022/08/04 06:15:20;;;;;;;2.53;2.33;;;;;;;21.81;64.66;95780.25;5046316;28;20072;-66
2022/08/04 06:17:48;;;;;;;3.17;2.58;;;;;;;21.81;65.11;95788.31;5046213;28;20067;-65
2022/08/04 06:20:16;;;;;;;4.47;2.38;;;;;;;21.88;64.48;95789.09;5044514;28;20031;-66
2022/08/04 06:22:44;;;;;;;2.78;2.47;;;;;;;22.03;62.73;95786.16;5040899;28;20071;-66
2022/08/04 06:25:15;;;;;;;14.63;3.22;;;;;;;22.20;61.34;95796.41;5044707;28;20029;-66
2022/08/04 06:27:41;;;;;;;8.20;2.78;;;;;;;22.38;60.67;95790.31;5041761;28;20025;-66
2022/08/04 06:30:12;;;;;;;2.53;2.42;;;;;;;22.47;61.04;95791.78;5037971;28;20505;-67
2022/08/04 06:32:54;;;;;;;3.53;2.38;;;;;;;22.63;61.61;95797.66;5046266;28;20025;-66
2022/08/04 06:35:20;;;;;;;3.47;2.38;;;;;;;22.85;60.40;95793.56;5042002;28;20037;-65
2022/08/04 06:37:47;;;;;;;4.30;2.47;;;;;;;22.98;59.67;95798.03;5040783;28;20082;-67
2022/08/04 06:40:14;;;;;;;2.67;2.47;;;;;;;23.08;59.65;95796.72;5042082;28;20108;-67
2022/08/04 06:42:41;;;;;;;5.82;3.03;;;;;;;23.17;59.30;95790.88;5040276;28;20316;-68
2022/08/04 06:45:10;;;;;;;4.80;2.53;;;;;;;23.23;59.79;95788.34;5044302;28;20148;-64
2022/08/04 06:47:40;;;;;;;2.83;2.63;;;;;;;23.21;60.20;95793.94;5047695;28;20094;-65
2022/08/04 06:50:09;;;;;;;5.10;2.40;;;;;;;23.24;60.71;95798.03;5048481;28;21492;-65
2022/08/04 06:52:36;;;;;;;2.60;2.05;;;;;;;23.18;60.92;95797.88;5044691;28;20055;-66
2022/08/04 06:55:02;;;;;;;6.50;2.50;;;;;;;23.16;61.49;95807.19;5046813;28;20147;-65
2022/08/04 06:57:29;;;;;;;2.45;2.33;;;;;;;23.09;61.04;95801.88;5045508;28;20037;-65
2022/08/04 07:00:22;;;;;;;4.25;2.42;;;;;;;23.13;57.97;95796.88;5042606;28;20025;-65
2022/08/04 07:02:50;;;;;;;3.10;2.20;;;;;;;23.18;59.64;95807.78;5037126;28;20519;-64
2022/08/04 07:05:17;;;;;;;2.78;2.58;;;;;;;23.12;59.05;95806.81;5041138;28;20033;-65
2022/08/04 07:07:43;;;;;;;2.45;2.25;;;;;;;23.21;59.33;95798.47;5041475;28;20060;-65
2022/08/04 07:10:10;;;;;;;5.00;2.67;;;;;;;23.31;59.20;95794.28;5036107;28;20088;-66
2022/08/04 07:12:36;;;;;;;2.65;2.45;;;;;;;23.41;59.88;95801.00;5044843;28;20048;-65
2022/08/04 07:15:03;;;;;;;6.60;2.55;;;;;;;23.45;60.41;95800.38;5046167;28;20035;-65
2022/08/04 07:17:30;;;;;;;3.78;2.33;;;;;;;23.53;59.28;95803.78;5043944;28;20087;-65
2022/08/04 07:19:56;;;;;;;2.78;2.58;;;;;;;23.54;58.25;95798.22;5048724;28;20037;-64
2022/08/04 07:22:23;;;;;;;2.75;2.38;;;;;;;23.62;56.69;95802.47;5043975;28;20092;-64
2022/08/04 07:24:54;;;;;;;2.97;2.45;;;;;;;23.80;57.76;95803.56;5044327;28;20040;-65
2022/08/04 07:27:20;;;;;;;4.30;2.40;;;;;;;24.00;56.92;95803.31;5043119;28;20104;-64
2022/08/04 07:29:46;;;;;;;2.65;2.45;;;;;;;24.26;56.96;95790.63;5050334;28;20111;-63
2022/08/04 07:32:12;;;;;;;2.50;2.30;;;;;;;24.83;53.71;95794.88;5046569;28;20056;-65
2022/08/04 07:34:39;;;;;;;2.97;2.55;;;;;;;25.73;52.30;95790.25;5047047;28;20029;-65
2022/08/04 07:37:05;;;;;;;3.15;2.30;;;;;;;26.41;49.23;95788.97;5041455;28;20658;-63
2022/08/04 07:39:31;;;;;;;5.43;2.33;;;;;;;26.74;47.21;95790.13;5046868;28;20044;-64
2022/08/04 07:41:59;;;;;;;2.67;2.38;;;;;;;26.73;47.06;95797.41;5044868;28;20021;-64
2022/08/04 07:44:25;;;;;;;4.80;2.33;;;;;;;26.74;46.50;95792.84;5045734;28;20364;-64
2022/08/04 07:46:51;;;;;;;2.13;2.00;;;;;;;26.67;47.21;95789.47;5043915;28;20025;-64
2022/08/04 07:49:16;;;;;;;4.40;2.63;;;;;;;26.60;46.70;95789.63;5045366;28;20032;-64
2022/08/04 07:51:42;;;;;;;2.22;2.13;;;;;;;26.58;48.32;95789.84;5046064;28;20021;-64
2022/08/04 07:54:09;;;;;;;2.67;1.92;;;;;;;26.89;47.61;95786.91;5045559;28;20498;-64
2022/08/04 07:56:36;;;;;;;4.25;2.72;;;;;;;27.44;46.67;95796.16;5046923;28;20034;-64
2022/08/04 07:59:03;;;;;;;2.78;2.60;;;;;;;27.63;44.93;95789.69;5041558;28;20046;-64
2022/08/04 08:01:29;;;;;;;4.60;2.33;;;;;;;27.63;44.82;95789.69;5045926;28;20017;-64
2022/08/04 08:03:56;;;;;;;2.60;2.38;;;;;;;27.85;45.91;95790.59;5042629;28;20025;-64
2022/08/04 08:06:27;;;;;;;2.53;2.33;;;;;;;28.17;45.33;95787.22;5043000;28;20029;-64
2022/08/04 08:08:54;;;;;;;2.70;2.50;;;;;;;28.35;44.29;95790.69;5042822;28;20021;-64
2022/08/04 08:11:19;;;;;;;5.00;3.35;;;;;;;28.65;43.12;95789.38;5047358;28;20028;-64
2022/08/04 08:13:45;;;;;;;2.00;1.90;;;;;;;28.86;40.99;95784.19;5045956;28;20454;-64
2022/08/04 08:16:11;;;;;;;3.88;2.30;;;;;;;28.63;42.50;95785.25;5045504;28;20101;-64
2022/08/04 08:18:37;;;;;;;2.95;2.00;;;;;;;29.17;39.75;95782.56;5044228;28;20515;-64
2022/08/04 08:21:03;;;;;;;1.98;1.88;;;;;;;29.51;37.44;95786.06;5044036;28;20053;-65
2022/08/04 08:23:31;;;;;;;2.25;2.08;;;;;;;30.20;37.52;95781.59;5040471;28;20033;-65
2022/08/04 08:25:57;;;;;;;1.67;1.60;;;;;;;31.12;35.31;95774.75;5040040;28;20017;-65
2022/08/04 08:28:23;;;;;;;6.05;1.70;;;;;;;31.70;33.41;95781.78;5043243;28;20037;-65
2022/08/04 08:30:49;;;;;;;1.55;1.52;;;;;;;32.06;34.00;95780.09;5047277;28;20021;-64
2022/08/04 08:33:15;;;;;;;2.08;1.77;;;;;;;32.57;31.83;95770.91;5047794;28;20036;-65
2022/08/04 08:35:46;;;;;;;15.18;2.28;;;;;;;32.95;32.07;95764.97;5041833;28;20017;-64
2022/08/04 08:38:14;;;;;;;3.00;1.73;;;;;;;32.76;30.52;95762.06;5027862;28;20516;-65
2022/08/04 08:40:40;;;;;;;4.75;2.00;;;;;;;32.71;31.07;95766.44;5044266;28;20074;-65
2022/08/04 08:43:26;;;;;;;6.03;2.00;;;;;;;32.91;29.90;95761.19;5040491;28;20021;-65
2022/08/04 08:46:18;;;;;;;5.30;1.67;;;;;;;32.97;29.53;95752.69;5045296;28;20020;-64
2022/08/04 08:49:02;;;;;;;2.40;2.20;;;;;;;33.36;31.32;95755.59;5040021;28;20108;-64
2022/08/04 08:51:43;;;;;;;2.00;1.73;;;;;;;33.71;31.09;95748.22;5044460;28;20119;-63
2022/08/04 08:54:23;;;;;;;3.78;1.95;;;;;;;34.03;29.82;95743.25;5044616;28;20418;-63
2022/08/04 08:57:22;;;;;;;3.08;2.00;;;;;;;34.15;28.51;95740.88;5045460;28;20036;-63
2022/08/04 09:00:19;;;;;;;1.83;1.73;;;;;;;34.28;28.49;95742.91;5041463;28;20033;-64
2022/08/04 09:03:06;;;;;;;1.65;1.55;;;;;;;34.48;28.67;95743.75;5037850;28;20116;-65
2022/08/04 09:05:55;;;;;;;1.92;1.75;;;;;;;34.28;27.91;95744.84;5038671;28;20029;-63
2022/08/04 09:09:19;;;;;;;3.72;1.60;;;;;;;34.46;26.40;95740.50;5046696;28;20407;-63
2022/08/04 09:11:54;;;;;;;1.90;1.60;;;;;;;34.75;26.27;95736.81;4972802;28;20041;-64
2022/08/04 09:14:27;;;;;;;2.00;1.77;;;;;;;34.12;26.64;95742.31;5044539;28;20040;-64
2022/08/04 09:17:02;;;;;;;1.83;1.73;;;;;;;33.82;27.67;95733.34;5044633;28;20021;-64
2022/08/04 09:19:44;;;;;;;3.55;1.70;;;;;;;33.60;28.25;95735.75;5046099;28;20032;-64
2022/08/04 09:22:32;;;;;;;2.42;1.42;;;;;;;33.60;28.41;95736.59;5041667;28;20029;-64
2022/08/04 09:25:00;;;;;;;2.17;1.70;;;;;;;33.60;27.51;95736.59;5047164;28;20029;-63
2022/08/04 09:27:29;;;;;;;1.90;1.75;;;;;;;33.68;29.10;95727.75;5041300;28;20056;-64
2022/08/04 09:30:07;;;;;;;3.38;1.67;;;;;;;33.84;29.32;95722.13;5041825;28;20043;-64
2022/08/04 09:32:38;;;;;;;2.22;1.67;;;;;;;34.20;27.28;95729.94;5048030;28;20090;-64
2022/08/04 09:35:15;;;;;;;5.03;2.20;;;;;;;34.10;27.03;95727.31;5046783;28;20037;-64
2022/08/04 09:37:59;;;;;;;5.35;2.00;;;;;;;33.93;27.40;95728.56;5047697;28;20044;-65
2022/08/04 09:40:45;;;;;;;3.97;2.17;;;;;;;34.24;26.82;95733.69;5034589;28;20072;-64
2022/08/04 09:43:44;;;;;;;3.08;1.63;;;;;;;34.41;26.77;95722.25;5044979;28;20017;-64
2022/08/04 09:46:18;;;;;;;1.98;1.88;;;;;;;34.04;28.46;95729.28;5041650;28;20052;-63
2022/08/04 09:48:58;;;;;;;3.60;1.90;;;;;;;34.42;26.64;95734.00;5045739;28;20772;-65
2022/08/04 09:51:44;;;;;;;2.90;2.08;;;;;;;34.13;27.73;95730.28;5041948;28;20401;-64
2022/08/04 09:54:47;;;;;;;2.80;1.60;;;;;;;34.34;27.60;95737.38;5051649;28;20028;-64
2022/08/04 09:57:22;;;;;;;2.22;1.88;;;;;;;34.77;27.42;95731.88;5046068;28;20029;-64
2022/08/04 09:59:53;;;;;;;2.80;1.63;;;;;;;34.93;27.42;95724.25;5048366;28;20029;-65
2022/08/04 10:02:22;;;;;;;8.63;1.92;;;;;;;35.17;26.58;95722.53;5048700;28;20036;-64
2022/08/04 10:04:49;;;;;;;2.45;2.25;;;;;;;35.18;27.95;95719.50;5041263;28;20028;-65
2022/08/04 10:07:20;;;;;;;2.33;2.13;;;;;;;35.16;26.93;95718.16;5048192;28;20112;-65
2022/08/04 10:10:07;;;;;;;3.47;2.00;;;;;;;35.47;26.41;95717.59;5048733;28;20427;-65
2022/08/04 10:12:42;;;;;;;3.10;1.77;;;;;;;35.85;25.36;95717.47;5048251;28;20029;-65
2022/08/04 10:15:15;;;;;;;2.35;1.65;;;;;;;35.69;25.30;95715.03;5039758;28;20075;-65
2022/08/04 10:17:49;;;;;;;3.95;1.80;;;;;;;35.82;24.97;95715.34;5048126;28;20017;-65
2022/08/04 10:20:49;;;;;;;4.50;1.95;;;;;;;35.37;25.33;95710.41;5046645;28;20037;-65
2022/08/04 10:23:26;;;;;;;2.50;2.25;;;;;;;35.26;26.84;95705.13;5042836;28;20021;-65
2022/08/04 10:26:12;;;;;;;2.72;1.90;;;;;;;36.10;24.81;95697.00;5041093;28;20032;-65
2022/08/04 10:28:45;;;;;;;1.98;1.80;;;;;;;36.05;24.83;95704.50;5045896;28;20109;-66
2022/08/04 10:31:21;;;;;;;4.38;1.80;;;;;;;35.67;26.04;95700.81;5047795;28;20036;-65
2022/08/04 10:34:25;;;;;;;1.90;1.67;;;;;;;36.34;25.97;95689.63;5047864;28;20037;-66
2022/08/04 10:36:57;;;;;;;2.67;1.67;;;;;;;36.14;24.65;95694.44;5035649;28;20120;-65
2022/08/04 10:39:30;;;;;;;1.52;1.42;;;;;;;35.87;25.21;95689.78;5048119;28;20067;-66
2022/08/04 10:42:11;;;;;;;2.00;1.85;;;;;;;35.95;25.24;95684.41;5041186;28;20039;-66
2022/08/04 10:44:54;;;;;;;2.08;1.60;;;;;;;36.18;24.38;95683.69;5044133;28;20017;-66
2022/08/04 10:47:23;;;;;;;1.98;1.88;;;;;;;36.05;24.64;95677.94;5045557;28;20485;-66
2022/08/04 10:50:00;;;;;;;3.78;1.80;;;;;;;36.19;25.08;95677.09;5051152;28;20045;-65
2022/08/04 10:52:45;;;;;;;2.03;1.80;;;;;;;36.24;24.42;95674.22;5047874;28;20412;-66
2022/08/04 10:55:20;;;;;;;2.35;1.60;;;;;;;36.77;24.52;95663.72;5046138;28;20017;-67
2022/08/04 10:57:58;;;;;;;3.83;1.83;;;;;;;37.40;23.03;95667.34;5041925;28;20053;-66
2022/08/04 11:00:26;;;;;;;5.40;1.90;;;;;;;37.71;22.76;95667.66;5047947;28;20029;-66
2022/08/04 11:03:05;;;;;;;5.47;1.80;;;;;;;38.11;22.20;95668.41;5046479;28;20059;-66
2022/08/04 11:05:54;;;;;;;4.18;1.80;;;;;;;37.60;22.36;95658.91;5047266;28;20024;-66
2022/08/04 11:08:25;;;;;;;1.85;1.70;;;;;;;37.78;22.54;95657.78;5046428;28;20021;-65
2022/08/04 11:11:08;;;;;;;1.70;1.60;;;;;;;37.95;22.01;95650.72;5043913;28;20101;-66
2022/08/04 11:13:58;;;;;;;1.70;1.60;;;;;;;37.89;21.69;95655.56;5046202;28;20025;-66
2022/08/04 11:16:35;;;;;;;2.25;1.80;;;;;;;38.20;21.05;95649.19;5045003;28;20033;-65
2022/08/04 11:19:18;;;;;;;2.53;1.60;;;;;;;38.50;20.77;95654.88;5044186;28;20484;-66
2022/08/04 11:21:54;;;;;;;1.63;1.57;;;;;;;38.52;20.26;95649.88;5047173;28;20037;-66
2022/08/04 11:24:42;;;;;;;1.70;1.60;;;;;;;37.73;20.79;95643.44;5042641;28;20088;-65
2022/08/04 11:27:15;;;;;;;6.82;1.70;;;;;;;38.06;20.02;95640.28;5040198;28;20042;-65
2022/08/04 11:30:11;;;;;;;1.80;1.60;;;;;;;38.29;19.57;95642.88;5049632;28;20071;-65
2022/08/04 11:32:45;;;;;;;1.90;1.80;;;;;;;38.40;19.11;95650.47;5037120;28;20044;-66
2022/08/04 11:35:21;;;;;;;3.08;1.90;;;;;;;38.24;20.25;95641.09;5044404;28;20017;-66
2022/08/04 11:38:03;;;;;;;2.67;1.75;;;;;;;38.53;19.95;95637.72;5046474;28;20021;-66
2022/08/04 11:40:40;;;;;;;1.40;1.30;;;;;;;38.49;20.11;95631.28;5044503;28;20032;-66
2022/08/04 11:43:12;;;;;;;2.05;1.60;;;;;;;38.93;18.92;95627.69;5042912;28;20074;-66
2022/08/04 11:45:49;;;;;;;3.22;1.58;;;;;;;38.47;19.51;95633.53;5049447;28;20017;-66
2022/08/04 11:48:21;;;;;;;1.42;1.42;;;;;;;38.79;18.62;95633.34;5044238;28;20508;-66
2022/08/04 11:50:51;;;;;;;1.50;1.45;;;;;;;39.06;18.32;95625.88;5041020;28;20484;-68
2022/08/04 11:53:22;;;;;;;1.80;1.70;;;;;;;38.61;18.57;95624.31;5043768;28;20017;-66
2022/08/04 11:55:52;;;;;;;1.58;1.48;;;;;;;38.61;19.19;95622.38;5049283;28;20453;-67
2022/08/04 11:58:19;;;;;;;1.85;1.48;;;;;;;39.26;17.46;95619.63;5044385;28;20112;-67
2022/08/04 12:00:57;;;;;;;2.03;1.63;;;;;;;38.51;17.47;95618.00;5045849;28;20500;-66
2022/08/04 12:03:50;;;;;;;1.92;1.80;;;;;;;38.73;18.16;95613.44;5047497;28;20437;-66
2022/08/04 12:06:24;;;;;;;1.40;1.40;;;;;;;38.35;18.24;95606.69;5044788;28;20025;-65
2022/08/04 12:08:52;;;;;;;7.28;1.90;;;;;;;38.45;18.39;95610.25;5046812;28;20499;-66
2022/08/04 12:11:26;;;;;;;2.45;1.45;;;;;;;39.28;17.71;95604.75;5040942;28;20511;-66
2022/08/04 12:14:37;;;;;;;1.98;1.33;;;;;;;38.82;18.27;95603.25;5036844;28;20040;-64
2022/08/04 12:17:04;;;;;;;3.33;1.55;;;;;;;38.89;17.94;95596.44;5039959;28;20045;-66
2022/08/04 12:19:47;;;;;;;1.90;1.70;;;;;;;39.03;17.90;95596.25;5039071;28;20403;-66
2022/08/04 12:22:21;;;;;;;2.65;1.50;;;;;;;39.34;16.53;95598.72;5042082;28;20625;-66